createdAt,value
2019-03-11T00:01:40.292Z,93.37
2019-03-11T00:04:13.426Z,93.30
2019-03-11T00:06:46.572Z,93.29
2019-03-11T00:09:18.951Z,93.03
2019-03-11T00:11:50.879Z,92.97
2019-03-11T00:14:23.074Z,92.98
2019-03-11T00:16:55.467Z,92.89
2019-03-11T00:19:28.544Z,92.76
2019-03-11T00:22:00.802Z,92.66
2019-03-11T00:24:33.789Z,92.67
2019-03-11T00:27:06.068Z,92.71
2019-03-11T00:29:38.439Z,92.74
2019-03-11T00:32:10.701Z,92.70
2019-03-11T00:34:43.080Z,92.65
2019-03-11T00:37:16.889Z,92.69
2019-03-11T00:39:49.258Z,92.63
2019-03-11T00:42:22.752Z,92.61
2019-03-11T00:44:55.126Z,92.61
2019-03-11T00:47:27.492Z,92.52
2019-03-11T00:49:59.859Z,92.28
2019-03-11T00:52:32.182Z,92.05
2019-03-11T00:55:05.638Z,91.69
2019-03-11T00:57:37.908Z,91.61
2019-03-11T01:00:34.344Z,91.60
2019-03-11T01:03:07.120Z,91.63
2019-03-11T01:05:39.556Z,91.62
2019-03-11T01:08:12.524Z,91.87
2019-03-11T01:10:44.470Z,91.71
2019-03-11T01:13:16.821Z,91.81
2019-03-11T01:15:50.416Z,91.59
2019-03-11T01:18:22.795Z,91.74
2019-03-11T01:20:55.156Z,91.75
2019-03-11T01:23:27.437Z,91.49
2019-03-11T01:25:59.609Z,91.50
2019-03-11T01:28:31.966Z,91.54
2019-03-11T01:31:04.345Z,91.40
2019-03-11T01:33:37.836Z,91.39
2019-03-11T01:36:10.216Z,91.25
2019-03-11T01:38:42.644Z,91.44
2019-03-11T01:41:14.950Z,91.42
2019-03-11T01:43:47.331Z,91.30
2019-03-11T01:46:19.701Z,91.36
2019-03-11T01:48:52.062Z,91.19
2019-03-11T01:51:24.434Z,91.15
2019-03-11T01:53:56.712Z,90.96
2019-03-11T01:56:29.082Z,91.00
2019-03-11T01:59:01.452Z,90.97
2019-03-11T02:01:33.827Z,91.02
2019-03-11T02:04:06.200Z,90.88
2019-03-11T02:06:38.570Z,90.82
2019-03-11T02:09:13.291Z,90.34
2019-03-11T02:11:45.667Z,90.33
2019-03-11T02:14:18.045Z,90.30
2019-03-11T02:16:50.223Z,90.20
2019-03-11T02:19:23.613Z,90.21
2019-03-11T02:21:55.971Z,90.20
2019-03-11T02:24:28.252Z,89.78
2019-03-11T02:27:00.619Z,89.88
2019-03-11T02:29:34.007Z,89.88
2019-03-11T02:32:07.582Z,90.01
2019-03-11T02:34:39.492Z,89.59
2019-03-11T02:37:11.846Z,89.52
2019-03-11T02:39:44.222Z,89.47
2019-03-11T02:42:16.596Z,89.44
2019-03-11T02:44:48.524Z,89.43
2019-03-11T02:47:20.923Z,89.24
2019-03-11T02:49:53.242Z,89.29
2019-03-11T02:52:25.570Z,89.33
2019-03-11T02:54:57.895Z,89.37
2019-03-11T02:57:31.601Z,88.96
2019-03-11T03:00:19.948Z,89.25
2019-03-11T03:03:04.288Z,89.55
2019-03-11T03:05:38.194Z,89.54
2019-03-11T03:08:10.421Z,89.40
2019-03-11T03:10:42.331Z,89.43
2019-03-11T03:13:14.799Z,89.10
2019-03-11T03:15:46.717Z,89.14
2019-03-11T03:18:19.139Z,89.25
2019-03-11T03:20:51.062Z,89.13
2019-03-11T03:23:23.469Z,89.08
2019-03-11T03:25:55.832Z,88.99
2019-03-11T03:28:28.204Z,89.17
2019-03-11T03:31:00.579Z,89.01
2019-03-11T03:33:32.951Z,88.71
2019-03-11T03:36:04.864Z,88.68
2019-03-11T03:38:37.283Z,88.28
2019-03-11T03:41:10.585Z,88.44
2019-03-11T03:43:42.957Z,88.68
2019-03-11T03:46:19.183Z,88.98
2019-03-11T03:48:49.539Z,88.93
2019-03-11T03:51:22.124Z,88.99
2019-03-11T03:53:54.320Z,88.85
2019-03-11T03:56:26.659Z,88.72
2019-03-11T03:58:59.650Z,88.79
2019-03-11T04:01:31.761Z,89.18
2019-03-11T04:04:04.173Z,89.70
2019-03-11T04:06:36.560Z,90.28
2019-03-11T04:09:08.930Z,90.47
2019-03-11T04:11:41.193Z,90.49
2019-03-11T04:14:13.564Z,90.57
2019-03-11T04:16:45.831Z,90.84
2019-03-11T04:19:18.211Z,90.95
2019-03-11T04:21:50.131Z,90.99
2019-03-11T04:24:22.552Z,90.99
2019-03-11T04:26:55.529Z,90.92
2019-03-11T04:29:27.498Z,90.72
2019-03-11T04:31:59.864Z,90.27
2019-03-11T04:34:32.230Z,90.16
2019-03-11T04:37:04.613Z,90.02
2019-03-11T04:39:36.974Z,89.73
2019-03-11T04:42:09.347Z,89.63
2019-03-11T04:44:41.728Z,89.12
2019-03-11T04:47:13.878Z,89.18
2019-03-11T04:49:46.257Z,88.65
2019-03-11T04:52:18.639Z,88.65
2019-03-11T04:54:51.007Z,88.64
2019-03-11T04:57:23.600Z,88.44
2019-03-11T04:59:56.462Z,88.52
2019-03-11T05:02:28.834Z,88.47
2019-03-11T05:05:01.205Z,88.74
2019-03-11T05:07:33.474Z,89.09
2019-03-11T05:10:10.152Z,89.15
2019-03-11T05:12:42.519Z,89.14
2019-03-11T05:15:15.546Z,89.25
2019-03-11T05:17:48.729Z,88.89
2019-03-11T05:20:22.296Z,89.00
2019-03-11T05:22:55.042Z,89.09
2019-03-11T05:25:27.600Z,88.91
2019-03-11T05:27:59.931Z,88.34
2019-03-11T05:30:32.300Z,88.52
2019-03-11T05:33:04.675Z,88.04
2019-03-11T05:35:37.045Z,87.89
2019-03-11T05:38:09.419Z,87.85
2019-03-11T05:40:41.794Z,87.86
2019-03-11T05:43:14.161Z,87.66
2019-03-11T05:45:46.156Z,87.66
2019-03-11T05:48:18.493Z,87.66
2019-03-11T05:50:50.872Z,87.52
2019-03-11T05:53:23.246Z,87.43
2019-03-11T05:55:55.292Z,86.82
2019-03-11T05:58:27.667Z,86.72
2019-03-11T06:01:01.077Z,86.72
2019-03-11T06:03:33.441Z,86.30
2019-03-11T06:06:05.818Z,86.05
2019-03-11T06:08:38.192Z,86.12
2019-03-11T06:11:10.556Z,85.99
2019-03-11T06:13:42.827Z,85.71
2019-03-11T06:16:15.199Z,85.43
2019-03-11T06:18:48.696Z,85.74
2019-03-11T06:21:32.336Z,85.33
2019-03-11T06:24:04.864Z,85.34
2019-03-11T06:26:37.278Z,85.33
2019-03-11T06:29:09.560Z,85.44
2019-03-11T06:31:41.931Z,85.69
2019-03-11T06:34:14.293Z,85.70
2019-03-11T06:36:46.273Z,85.61
2019-03-11T06:39:18.660Z,85.70
2019-03-11T06:41:51.727Z,86.02
2019-03-11T06:44:24.199Z,85.54
2019-03-11T06:46:56.771Z,86.03
2019-03-11T06:49:29.206Z,85.96
2019-03-11T06:52:03.521Z,85.47
2019-03-11T06:54:35.171Z,85.56
2019-03-11T06:57:09.274Z,85.05
2019-03-11T06:59:41.695Z,84.61
2019-03-11T07:02:14.392Z,84.62
2019-03-11T07:04:46.328Z,84.30
2019-03-11T07:07:18.720Z,84.28
2019-03-11T07:09:50.979Z,84.69
2019-03-11T07:12:23.356Z,84.04
2019-03-11T07:14:55.618Z,84.75
2019-03-11T07:17:28.005Z,84.08
2019-03-11T07:20:00.361Z,84.53
2019-03-11T07:22:32.740Z,84.84
2019-03-11T07:25:05.457Z,84.39
2019-03-11T07:27:37.895Z,85.27
2019-03-11T07:30:19.407Z,85.95
2019-03-11T07:32:51.373Z,86.47
2019-03-11T07:35:23.636Z,86.78
2019-03-11T07:37:55.612Z,86.99
2019-03-11T07:40:30.096Z,87.03
2019-03-11T07:43:01.950Z,87.33
2019-03-11T07:45:34.336Z,87.74
2019-03-11T07:48:06.642Z,87.58
2019-03-11T07:50:38.976Z,87.48
2019-03-11T07:53:11.355Z,87.13
2019-03-11T07:55:43.713Z,86.61
2019-03-11T07:58:16.087Z,86.66
2019-03-11T08:00:53.818Z,86.01
2019-03-11T08:03:22.569Z,86.05
2019-03-11T08:05:54.941Z,85.20
2019-03-11T08:08:27.320Z,85.08
2019-03-11T08:10:59.685Z,84.67
2019-03-11T08:13:32.070Z,84.00
2019-03-11T08:16:04.434Z,83.90
2019-03-11T08:18:36.504Z,83.64
2019-03-11T08:21:10.341Z,84.61
2019-03-11T08:23:42.782Z,86.05
2019-03-11T08:26:15.667Z,86.52
2019-03-11T08:28:48.756Z,87.32
2019-03-11T08:31:21.141Z,87.87
2019-03-11T08:33:53.492Z,87.96
2019-03-11T08:36:25.935Z,88.42
2019-03-11T08:38:57.915Z,88.49
2019-03-11T08:41:30.198Z,88.76
2019-03-11T08:44:02.578Z,88.96
2019-03-11T08:46:34.944Z,88.91
2019-03-11T08:49:06.929Z,89.14
2019-03-11T08:51:39.270Z,89.06
2019-03-11T08:54:11.644Z,89.06
2019-03-11T08:56:44.087Z,89.29
2019-03-11T08:59:16.912Z,89.10
2019-03-11T09:01:49.282Z,89.27
2019-03-11T09:04:22.575Z,89.21
2019-03-11T09:06:55.872Z,89.77
2019-03-11T09:09:28.541Z,89.52
2019-03-11T09:12:00.464Z,89.58
2019-03-11T09:14:32.876Z,89.58
2019-03-11T09:17:04.794Z,89.56
2019-03-11T09:19:37.247Z,89.72
2019-03-11T09:22:09.490Z,89.85
2019-03-11T09:24:41.857Z,89.91
2019-03-11T09:27:14.230Z,89.73
2019-03-11T09:29:46.594Z,89.35
2019-03-11T09:32:19.523Z,90.06
2019-03-11T09:34:51.952Z,90.07
2019-03-11T09:37:24.340Z,89.95
2019-03-11T09:39:56.702Z,89.57
2019-03-11T09:42:30.095Z,89.69
2019-03-11T09:45:02.470Z,89.14
2019-03-11T09:47:36.070Z,89.37
2019-03-11T09:50:12.331Z,89.12
2019-03-11T09:52:44.711Z,89.10
2019-03-11T09:55:28.032Z,89.31
2019-03-11T09:58:00.606Z,89.16
2019-03-11T10:00:37.289Z,89.22
2019-03-11T10:03:09.649Z,88.75
2019-03-11T10:05:43.464Z,88.87
2019-03-11T10:08:15.855Z,88.27
2019-03-11T10:10:48.209Z,88.61
2019-03-11T10:13:20.579Z,87.84
2019-03-11T10:15:52.953Z,87.88
2019-03-11T10:18:25.328Z,87.96
2019-03-11T10:20:57.697Z,87.63
2019-03-11T10:23:32.431Z,88.21
2019-03-11T10:26:04.070Z,87.91
2019-03-11T10:28:36.450Z,87.59
2019-03-11T10:31:08.816Z,86.79
2019-03-11T10:33:41.244Z,87.66
2019-03-11T10:36:13.556Z,87.30
2019-03-11T10:38:45.836Z,84.38
2019-03-11T10:41:18.071Z,85.34
2019-03-11T10:43:50.367Z,85.31
2019-03-11T10:46:22.739Z,84.97
2019-03-11T10:48:55.012Z,83.70
2019-03-11T10:51:27.387Z,84.78
2019-03-11T10:53:59.761Z,84.45
2019-03-11T10:56:31.863Z,85.51
2019-03-11T10:59:03.797Z,84.79
2019-03-11T11:01:36.157Z,84.00
2019-03-11T11:04:08.516Z,84.08
2019-03-11T11:06:41.174Z,83.49
2019-03-11T11:09:13.584Z,83.39
2019-03-11T11:11:45.960Z,81.21
2019-03-11T11:14:19.969Z,81.29
2019-03-11T11:16:52.334Z,81.21
2019-03-11T11:19:24.704Z,80.50
2019-03-11T11:21:57.074Z,79.49
2019-03-11T11:24:29.018Z,80.59
2019-03-11T11:27:02.084Z,80.69
2019-03-11T11:29:34.399Z,79.34
2019-03-11T11:32:06.766Z,78.46
2019-03-11T11:34:39.548Z,76.44
2019-03-11T11:37:11.927Z,75.93
2019-03-11T11:39:44.293Z,77.04
2019-03-11T11:42:16.663Z,76.10
2019-03-11T11:44:48.939Z,76.75
2019-03-11T11:47:21.314Z,74.24
2019-03-11T11:49:53.328Z,72.71
2019-03-11T11:52:25.741Z,72.89
2019-03-11T11:54:58.011Z,71.43
2019-03-11T11:57:35.410Z,72.36
2019-03-11T12:00:41.681Z,72.83
2019-03-11T12:03:14.046Z,72.90
2019-03-11T12:05:46.410Z,72.40
2019-03-11T12:08:19.705Z,73.09
2019-03-11T12:10:51.980Z,73.23
2019-03-11T12:13:24.454Z,74.25
2019-03-11T12:15:56.832Z,74.68
2019-03-11T12:18:30.729Z,74.87
2019-03-11T12:21:03.114Z,75.46
2019-03-11T12:23:45.780Z,75.16
2019-03-11T12:26:09.491Z,73.98
2019-03-11T12:28:41.861Z,73.84
2019-03-11T12:31:14.123Z,71.44
2019-03-11T12:33:46.556Z,68.88
2019-03-11T12:36:18.478Z,68.78
2019-03-11T12:38:50.932Z,69.61
2019-03-11T12:41:23.198Z,70.46
2019-03-11T12:43:55.193Z,69.37
2019-03-11T12:46:27.543Z,68.00
2019-03-11T12:48:59.914Z,69.42
2019-03-11T12:51:32.176Z,68.27
2019-03-11T12:54:04.551Z,69.47
2019-03-11T12:56:36.922Z,70.31
2019-03-11T12:59:10.075Z,69.34
2019-03-11T13:01:42.389Z,71.93
2019-03-11T13:04:14.375Z,72.49
2019-03-11T13:06:46.722Z,72.33
2019-03-11T13:09:19.401Z,70.66
2019-03-11T13:11:51.767Z,69.18
2019-03-11T13:14:24.134Z,68.27
2019-03-11T13:16:56.516Z,63.95
2019-03-11T13:19:29.194Z,65.26
2019-03-11T13:22:01.718Z,64.59
2019-03-11T13:24:33.662Z,64.06
2019-03-11T13:27:07.137Z,62.96
2019-03-11T13:29:39.502Z,62.54
2019-03-11T13:32:12.803Z,64.31
2019-03-11T13:34:45.187Z,70.54
2019-03-11T13:37:17.545Z,72.33
2019-03-11T13:39:49.922Z,72.83
2019-03-11T13:42:21.838Z,73.22
2019-03-11T13:44:54.251Z,73.57
2019-03-11T13:47:26.678Z,72.70
2019-03-11T13:50:01.538Z,71.94
2019-03-11T13:52:34.327Z,71.39
2019-03-11T13:55:10.835Z,71.91
2019-03-11T13:57:44.039Z,73.04
2019-03-11T14:00:23.526Z,72.94
2019-03-11T14:02:55.900Z,73.85
2019-03-11T14:05:28.269Z,72.88
2019-03-11T14:08:00.199Z,72.57
2019-03-11T14:10:32.604Z,73.32
2019-03-11T14:13:04.984Z,71.89
2019-03-11T14:15:36.959Z,70.61
2019-03-11T14:18:09.306Z,70.73
2019-03-11T14:20:41.693Z,70.32
2019-03-11T14:23:13.946Z,68.39
2019-03-11T14:25:46.327Z,67.46
2019-03-11T14:28:18.704Z,71.59
2019-03-11T14:30:51.164Z,74.02
2019-03-11T14:33:23.553Z,75.59
2019-03-11T14:35:57.350Z,76.78
2019-03-11T14:38:30.641Z,77.10
2019-03-11T14:41:03.014Z,76.28
2019-03-11T14:43:35.409Z,75.90
2019-03-11T14:46:07.759Z,76.53
2019-03-11T14:48:40.138Z,76.25
2019-03-11T14:51:12.122Z,75.19
2019-03-11T14:53:44.475Z,75.90
2019-03-11T14:56:17.967Z,76.74
2019-03-11T14:58:50.334Z,77.27
2019-03-11T15:01:22.707Z,78.10
2019-03-11T15:03:55.085Z,78.87
2019-03-11T15:06:28.255Z,79.96
2019-03-11T15:09:00.534Z,80.56
2019-03-11T15:11:34.445Z,81.35
2019-03-11T15:14:06.374Z,81.54
2019-03-11T15:16:38.791Z,81.85
2019-03-11T15:19:11.050Z,81.95
2019-03-11T15:21:43.421Z,81.99
2019-03-11T15:24:15.698Z,82.50
2019-03-11T15:26:48.128Z,82.59
2019-03-11T15:29:20.334Z,82.26
2019-03-11T15:31:52.711Z,82.44
2019-03-11T15:34:25.086Z,81.79
2019-03-11T15:36:57.451Z,81.67
2019-03-11T15:39:29.821Z,81.30
2019-03-11T15:42:02.186Z,80.94
2019-03-11T15:44:34.578Z,80.77
2019-03-11T15:47:07.151Z,80.99
2019-03-11T15:49:39.528Z,80.87
2019-03-11T15:52:11.891Z,81.11
2019-03-11T15:54:44.260Z,81.37
2019-03-11T15:57:17.660Z,81.24
2019-03-11T15:59:51.981Z,81.36
2019-03-11T16:02:24.352Z,82.75
2019-03-11T16:04:56.729Z,84.50
2019-03-11T16:07:29.097Z,85.63
2019-03-11T16:10:03.319Z,86.49
2019-03-11T16:12:35.688Z,87.41
2019-03-11T16:15:09.912Z,88.03
2019-03-11T16:17:42.671Z,88.73
2019-03-11T16:20:21.399Z,89.22
2019-03-11T16:22:54.903Z,89.51
2019-03-11T16:25:27.314Z,89.91
2019-03-11T16:27:59.775Z,90.15
2019-03-11T16:30:32.115Z,90.36
2019-03-11T16:33:04.480Z,90.51
2019-03-11T16:35:36.862Z,90.63
2019-03-11T16:38:09.235Z,90.60
2019-03-11T16:40:41.600Z,90.79
2019-03-11T16:43:13.973Z,90.85
2019-03-11T16:45:46.339Z,91.08
2019-03-11T16:48:18.722Z,91.10
2019-03-11T16:50:51.092Z,91.21
2019-03-11T16:53:23.459Z,91.18
2019-03-11T16:55:55.414Z,91.42
2019-03-11T16:58:27.793Z,91.48
2019-03-11T17:01:01.713Z,91.39
2019-03-11T17:03:33.682Z,91.45
2019-03-11T17:06:06.034Z,91.52
2019-03-11T17:08:38.414Z,91.51
2019-03-11T17:11:10.582Z,91.51
2019-03-11T17:13:42.943Z,91.70
2019-03-11T17:16:15.325Z,91.63
2019-03-11T17:18:47.687Z,91.60
2019-03-11T17:21:19.620Z,91.76
2019-03-11T17:23:51.587Z,91.69
2019-03-11T17:26:23.891Z,91.72
2019-03-11T17:28:55.864Z,91.73
2019-03-11T17:31:28.218Z,91.81
2019-03-11T17:34:00.444Z,91.86
2019-03-11T17:36:32.758Z,91.97
2019-03-11T17:39:06.357Z,91.96
2019-03-11T17:41:39.549Z,91.98
2019-03-11T17:44:11.918Z,91.95
2019-03-11T17:46:44.299Z,91.90
2019-03-11T17:49:16.673Z,91.79
2019-03-11T17:51:49.034Z,91.78
2019-03-11T17:54:22.497Z,91.67
2019-03-11T17:56:55.109Z,91.77
2019-03-11T17:59:27.491Z,91.76
2019-03-11T18:01:59.856Z,91.62
2019-03-11T18:04:32.233Z,91.75
2019-03-11T18:07:04.515Z,91.72
2019-03-11T18:09:36.882Z,91.62
2019-03-11T18:12:09.342Z,91.79
2019-03-11T18:14:42.123Z,91.84
2019-03-11T18:17:14.301Z,91.95
2019-03-11T18:19:46.673Z,91.98
2019-03-11T18:22:19.046Z,91.83
2019-03-11T18:24:51.414Z,91.53
2019-03-11T18:27:23.806Z,91.41
2019-03-11T18:29:57.416Z,91.39
2019-03-11T18:32:30.374Z,91.35
2019-03-11T18:35:03.268Z,91.12
2019-03-11T18:37:35.643Z,91.15
2019-03-11T18:40:13.427Z,91.15
2019-03-11T18:42:45.819Z,91.07
2019-03-11T18:45:18.579Z,90.92
2019-03-11T18:47:50.520Z,90.85
2019-03-11T18:50:25.498Z,90.57
2019-03-11T18:52:57.850Z,90.64
2019-03-11T18:55:35.065Z,90.63
2019-03-11T18:58:07.049Z,90.86
2019-03-11T19:00:39.479Z,90.83
2019-03-11T19:03:11.723Z,90.47
2019-03-11T19:05:44.104Z,90.53
2019-03-11T19:08:16.487Z,90.60
2019-03-11T19:10:49.094Z,90.36
2019-03-11T19:13:21.431Z,90.58
2019-03-11T19:15:53.435Z,90.56
2019-03-11T19:18:25.915Z,90.58
2019-03-11T19:20:58.282Z,90.65
2019-03-11T19:23:30.210Z,90.40
2019-03-11T19:26:02.575Z,90.30
2019-03-11T19:28:35.847Z,90.61
2019-03-11T19:31:08.263Z,90.38
2019-03-11T19:33:40.608Z,90.38
2019-03-11T19:36:13.018Z,90.49
2019-03-11T19:38:45.353Z,90.39
2019-03-11T19:41:17.802Z,90.05
2019-03-11T19:43:50.237Z,90.12
2019-03-11T19:46:22.536Z,90.19
2019-03-11T19:48:54.472Z,90.09
2019-03-11T19:51:26.816Z,90.21
2019-03-11T19:53:59.250Z,90.34
2019-03-11T19:56:31.475Z,90.50
2019-03-11T19:59:03.402Z,90.62
2019-03-11T20:01:35.664Z,90.64
2019-03-11T20:04:07.587Z,90.73
2019-03-11T20:06:40.061Z,90.78
2019-03-11T20:09:13.503Z,90.80
2019-03-11T20:11:46.018Z,90.88
2019-03-11T20:14:18.299Z,90.90
2019-03-11T20:16:50.696Z,90.93
2019-03-11T20:19:23.004Z,91.05
2019-03-11T20:21:55.427Z,91.02
2019-03-11T20:24:27.738Z,90.89
2019-03-11T20:27:00.186Z,90.73
2019-03-11T20:29:33.991Z,90.76
2019-03-11T20:32:06.625Z,90.78
2019-03-11T20:34:39.077Z,90.80
2019-03-11T20:37:11.551Z,90.80
2019-03-11T20:39:43.958Z,90.74
2019-03-11T20:42:17.893Z,90.77
2019-03-11T20:44:50.357Z,90.89
2019-03-11T20:47:22.684Z,90.87
2019-03-11T20:49:57.416Z,90.73
2019-03-11T20:52:29.091Z,90.81
2019-03-11T20:55:01.019Z,90.75
2019-03-11T20:57:33.608Z,90.89
2019-03-11T21:00:15.901Z,90.70
2019-03-11T21:02:48.339Z,90.76
2019-03-11T21:05:36.278Z,90.84
2019-03-11T21:08:08.707Z,90.88
2019-03-11T21:10:42.087Z,90.84
2019-03-11T21:13:14.485Z,90.85
2019-03-11T21:15:46.942Z,90.88
2019-03-11T21:18:19.811Z,90.96
2019-03-11T21:21:04.116Z,91.00
2019-03-11T21:23:26.529Z,91.11
2019-03-11T21:25:59.254Z,91.26
2019-03-11T21:28:32.733Z,91.46
2019-03-11T21:31:05.262Z,91.67
2019-03-11T21:33:37.650Z,91.89
2019-03-11T21:36:09.709Z,92.00
2019-03-11T21:38:41.708Z,92.05
2019-03-11T21:41:14.122Z,92.08
2019-03-11T21:43:46.181Z,91.97
2019-03-11T21:46:18.201Z,91.77
2019-03-11T21:48:50.276Z,91.59
2019-03-11T21:51:22.450Z,91.35
2019-03-11T21:53:54.900Z,91.22
2019-03-11T21:56:27.434Z,91.08
2019-03-11T21:58:59.832Z,91.00
2019-03-11T22:01:32.171Z,90.84
2019-03-11T22:04:04.727Z,90.57
2019-03-11T22:06:38.310Z,90.25
2019-03-11T22:09:12.672Z,90.13
2019-03-11T22:11:45.045Z,90.17
2019-03-11T22:14:17.411Z,90.13
2019-03-11T22:16:49.795Z,90.31
2019-03-11T22:19:22.158Z,90.43
2019-03-11T22:21:54.532Z,90.57
2019-03-11T22:24:26.533Z,90.70
2019-03-11T22:26:58.874Z,90.76
2019-03-11T22:29:31.347Z,90.84
2019-03-11T22:32:03.720Z,90.91
2019-03-11T22:34:36.111Z,90.97
2019-03-11T22:37:08.025Z,90.96
2019-03-11T22:39:40.447Z,91.15
2019-03-11T22:42:12.851Z,91.11
2019-03-11T22:44:45.258Z,91.10
2019-03-11T22:47:19.069Z,91.08
2019-03-11T22:49:51.059Z,91.10
2019-03-11T22:52:23.410Z,91.14
2019-03-11T22:54:55.770Z,91.21
2019-03-11T22:57:29.750Z,91.06
2019-03-11T23:00:01.754Z,90.59
2019-03-11T23:02:40.233Z,90.06
2019-03-11T23:05:09.156Z,89.69
2019-03-11T23:07:41.527Z,89.35
2019-03-11T23:10:13.497Z,89.60
2019-03-11T23:12:45.861Z,90.00
2019-03-11T23:15:18.238Z,90.23
2019-03-11T23:17:50.614Z,90.29
2019-03-11T23:20:22.605Z,90.19
2019-03-11T23:22:54.944Z,90.07
2019-03-11T23:25:27.316Z,89.98
2019-03-11T23:27:59.692Z,89.82
2019-03-11T23:30:32.050Z,89.77
2019-03-11T23:33:04.431Z,89.64
2019-03-11T23:35:36.803Z,89.59
2019-03-11T23:38:09.182Z,89.74
2019-03-11T23:40:41.539Z,89.91
2019-03-11T23:43:13.909Z,90.08
2019-03-11T23:45:46.282Z,90.17
2019-03-11T23:48:18.762Z,90.32
2019-03-11T23:50:51.441Z,90.35
2019-03-11T23:53:23.819Z,89.97
2019-03-11T23:55:56.195Z,89.98
2019-03-11T23:58:28.564Z,89.90
